Latest Weather Observations for Cape Naturaliste

IDW60801

Issued at 11:35 am WST Monday 24 November 2014 (issued every 30 minutes, with the page automatically refreshed every 10 minutes)

About weather observations | Map of weather stations | Latest weather observations for WA | Other Formats
Station Details ID: 009519 Name: CAPE NATURALISTE Lat: -33.54 Lon: 115.02 Height: 109.0 m
Data from the previous 72 hours. | See also: Recent months at Cape Naturaliste
Date/Time
WST
Temp
°C
App
Temp
°C
Dew
Point
Rel
Hum
%
Delta-T
°C
Wind Press
QNH
hPa
Press
MSL
hPa
Rain
since 9 am
mm
Dir
 
Spd
km/h
Gust
km/h
Spd
kts
Gust
kts
24/11:30am 20.4 17.3 7.1 42 6.8 SSW 13 20 7 11 1022.7 1022.5 0.0
24/11:00am 19.7 15.1 6.4 42 6.7 ENE 20 26 11 14 1022.9 1022.7 0.0
24/10:30am 18.8 14.1 6.0 43 6.3 E 20 28 11 15 1023.0 1022.8 0.0
24/10:00am 17.8 12.6 5.4 44 6.0 E 22 30 12 16 1023.3 1023.1 0.0
24/09:30am 17.8 13.0 5.7 45 5.9 E 20 30 11 16 1023.5 1023.3 0.0
24/09:00am 17.4 12.7 6.0 47 5.6 E 20 30 11 16 1023.7 1023.5 0.0
24/08:30am 16.6 11.7 4.9 46 5.6 ESE 20 28 11 15 1024.0 1023.8 0.0
24/08:00am 16.4 11.8 5.4 48 5.3 ESE 19 26 10 14 1024.1 1023.9 0.0
24/07:30am 15.2 10.5 5.1 51 4.8 SE 19 28 10 15 1023.9 1023.7 0.0
24/07:00am 13.9 9.6 5.3 56 4.0 SE 17 26 9 14 1023.8 1023.6 0.0
24/06:30am 13.0 9.8 6.8 66 3.0 SSE 13 19 7 10 1023.5 1023.3 0.0
24/06:00am 11.1 7.7 5.8 70 2.5 SSE 13 17 7 9 1023.3 1023.1 0.0
24/05:30am 9.2 5.0 4.0 70 2.3 SSE 15 17 8 9 1023.2 1023.0 0.0
24/05:00am 9.1 4.9 3.9 70 2.3 SSE 15 19 8 10 1023.0 1022.8 0.0
24/04:30am 9.3 5.1 3.9 69 2.4 SSE 15 17 8 9 1022.7 1022.5 0.0
24/04:00am 9.6 5.1 4.2 69 2.4 S 17 20 9 11 1022.6 1022.4 0.0
24/03:30am 9.7 5.2 4.3 69 2.4 S 17 20 9 11 1022.5 1022.3 0.0
24/03:00am 10.1 5.1 4.5 68 2.5 S 20 24 11 13 1022.3 1022.1 0.0
24/02:30am 10.0 5.0 4.4 68 2.5 S 20 24 11 13 1022.3 1022.1 0.0
24/02:00am 10.0 5.2 4.4 68 2.5 S 19 22 10 12 1022.2 1022.0 0.0
24/01:30am 9.9 5.0 4.1 67 2.6 S 19 20 10 11 1022.2 1022.0 0.0
24/01:00am 10.2 5.3 4.1 66 2.7 SSE 19 22 10 12 1022.3 1022.1 0.0
24/12:30am 10.4 5.5 4.1 65 2.8 S 19 22 10 12 1022.4 1022.2 0.0
24/12:00am 10.6 5.7 4.1 64 2.9 S 19 24 10 13 1022.4 1022.2 0.0
 
Date/Time
WST
Temp
°C
App
Temp
°C
Dew
Point
Rel
Hum
%
Delta-T
°C
Wind Press
QNH
hPa
Press
MSL
hPa
Rain
since 9 am
mm
Dir
 
Spd
km/h
Gust
km/h
Spd
kts
Gust
kts
23/11:30pm 11.1 5.4 4.8 65 2.9 SSE 24 32 13 17 1022.3 1022.1 0.0
23/11:00pm 10.8 5.8 4.7 66 2.8 SSE 20 26 11 14 1022.3 1022.1 0.0
23/10:30pm 11.1 5.8 5.0 66 2.8 SSE 22 26 12 14 1022.2 1022.0 0.0
23/10:00pm 11.0 6.1 4.9 66 2.8 SSE 20 26 11 14 1022.2 1022.0 0.0
23/09:30pm 11.3 6.5 5.4 67 2.7 SSE 20 26 11 14 1022.0 1021.8 0.0
23/09:00pm 11.6 6.8 5.5 66 2.8 SSE 20 26 11 14 1021.8 1021.6 0.0
23/08:30pm 12.1 7.5 5.5 64 3.1 SSE 19 24 10 13 1021.5 1021.3 0.0
23/08:00pm 12.8 8.1 5.9 63 3.3 S 20 24 11 13 1021.2 1021.0 0.0
23/07:30pm 12.9 7.7 5.6 61 3.4 S 22 28 12 15 1020.7 1020.5 0.0
23/07:00pm 13.8 7.8 5.4 57 4.0 S 26 35 14 19 1020.3 1020.1 0.0
23/06:30pm 15.2 9.0 6.0 54 4.4 S 28 39 15 21 1019.8 1019.6 0.0
23/06:00pm 15.8 8.9 6.3 53 4.6 S 32 43 17 23 1019.5 1019.3 0.0
23/05:30pm 16.6 10.2 7.0 53 4.8 SSW 30 41 16 22 1019.1 1018.9 0.0
23/05:00pm 17.2 10.4 7.8 54 4.8 SSW 33 46 18 25 1018.8 1018.7 0.0
23/04:30pm 17.7 10.7 8.6 55 4.7 SSW 35 46 19 25 1018.6 1018.5 0.0
23/04:00pm 18.2 11.4 7.6 50 5.4 SSW 33 46 18 25 1018.5 1018.4 0.0
23/03:30pm 18.2 11.2 8.5 53 5.0 SSW 35 46 19 25 1018.4 1018.3 0.0
23/03:00pm 17.6 11.7 9.0 57 4.5 SSW 30 41 16 22 1018.5 1018.4 0.0
23/02:30pm 18.4 11.8 8.7 53 5.1 SSW 33 44 18 24 1018.4 1018.3 0.0
23/02:00pm 18.3 12.6 6.8 47 5.8 SSW 26 35 14 19 1018.4 1018.3 0.0
23/01:30pm 19.8 14.7 7.5 45 6.3 SW 24 32 13 17 1018.1 1017.9 0.0
23/01:00pm 19.9 14.2 8.3 47 6.0 SSW 28 37 15 20 1018.2 1018.0 0.0
23/12:30pm 19.5 13.6 7.6 46 6.1 SSW 28 41 15 22 1018.4 1018.3 0.0
23/12:00pm 19.6 13.5 6.7 43 6.5 SSW 28 41 15 22 1018.2 1018.0 0.0
23/11:30am 19.5 12.6 7.3 45 6.2 SSW 33 44 18 24 1018.1 1017.9 0.0
23/11:00am 18.9 13.0 7.4 47 5.9 SSW 28 39 15 21 1018.0 1017.8 0.0
23/10:30am 19.2 12.6 7.9 48 5.8 SSW 32 41 17 22 1017.8 1017.6 0.0
23/10:00am 18.9 13.3 8.8 52 5.3 SSW 28 37 15 20 1017.7 1017.5 0.0
23/09:30am 18.5 12.2 7.6 49 5.6 SSW 30 43 16 23 1017.5 1017.3 0.0
23/09:00am 17.5 11.5 8.6 56 4.6 SSW 30 41 16 22 1017.3 1017.1 0.6
23/08:30am 16.8 10.5 9.0 60 4.0 SSW 32 48 17 26 1017.2 1017.0 0.6
23/08:00am 17.1 11.2 10.5 65 3.5 SSW 32 44 17 24 1016.9 1016.7 0.6
23/07:30am 15.5 11.1 10.3 71 2.7 SSW 24 39 13 21 1016.7 1016.5 0.6
23/07:00am 14.3 9.0 9.9 75 2.3 SW 28 35 15 19 1016.3 1016.1 0.6
23/06:30am 16.0 10.0 10.1 68 3.1 SW 32 41 17 22 1015.8 1015.6 0.6
23/06:00am 14.6 8.7 10.4 76 2.2 SW 32 46 17 25 1015.5 1015.3 0.6
23/05:31am 13.4 7.3 10.4 82 1.6 SW 33 52 18 28 1015.2 1015.0 0.6
23/05:30am 13.4 6.9 10.2 81 1.7 SW 35 52 19 28 1015.2 1015.0 0.6
23/05:00am 14.3 6.4 9.5 73 2.5 SW 41 59 22 32 1014.6 1014.4 0.6
23/04:57am 15.1 8.1 9.9 71 2.7 SW 37 59 20 32 1014.5 1014.3 0.4
23/04:30am 15.4 9.3 9.7 69 3.0 SW 32 43 17 23 1014.3 1014.1 0.4
23/04:13am 15.7 9.7 10.0 69 3.0 SW 32 50 17 27 1014.0 1013.8 0.4
23/04:00am 15.4 9.0 8.6 64 3.5 SW 32 43 17 23 1014.1 1013.9 0.4
23/03:30am 15.3 9.6 9.9 70 2.8 WSW 30 41 16 22 1014.0 1013.8 0.4
23/03:00am 14.1 8.1 10.1 77 2.1 WSW 32 46 17 25 1014.1 1013.9 0.4
23/02:53am 13.6 6.1 9.6 77 2.1 WSW 39 57 21 31 1014.2 1014.0 0.4
23/02:30am 15.6 9.3 9.7 68 3.1 WSW 33 46 18 25 1013.9 1013.7 0.4
23/02:00am 15.2 9.6 10.2 72 2.6 SW 30 39 16 21 1014.1 1013.9 0.4
23/01:30am 14.6 8.4 10.0 74 2.4 SW 33 44 18 24 1014.4 1014.2 0.4
23/01:14am 14.5 8.4 9.9 74 2.4 SW 32 50 17 27 1014.2 1014.0 0.4
23/01:00am 15.5 10.1 9.6 68 3.1 SW 28 35 15 19 1014.3 1014.1 0.4
23/12:30am 15.6 9.4 9.5 67 3.2 SW 32 41 17 22 1014.4 1014.2 0.4
23/12:00am 15.6 9.9 9.9 69 3.0 SW 30 39 16 21 1014.5 1014.3 0.4
 
Date/Time
WST
Temp
°C
App
Temp
°C
Dew
Point
Rel
Hum
%
Delta-T
°C
Wind Press
QNH
hPa
Press
MSL
hPa
Rain
since 9 am
mm
Dir
 
Spd
km/h
Gust
km/h
Spd
kts
Gust
kts
22/11:30pm 15.2 8.9 9.8 70 2.8 SW 33 41 18 22 1014.8 1014.6 0.4
22/11:04pm 15.4 9.8 10.2 71 2.7 SW 30 48 16 26 1014.9 1014.7 0.4
22/11:00pm 15.1 9.4 9.9 71 2.7 SW 30 39 16 21 1015.0 1014.8 0.4
22/10:30pm 15.0 9.2 9.4 69 2.9 WSW 30 50 16 27 1015.0 1014.8 0.4
22/10:29pm 15.4 9.7 9.7 69 3.0 WSW 30 50 16 27 1015.1 1014.9 0.4
22/10:00pm 15.7 10.4 8.4 62 3.7 WSW 26 35 14 19 1015.2 1015.0 0.2
22/09:30pm 15.9 9.1 9.3 65 3.4 WSW 35 46 19 25 1015.2 1015.0 0.2
22/09:00pm 15.7 10.9 10.2 70 2.9 WSW 26 39 14 21 1015.2 1015.0 0.2
22/08:30pm 15.6 9.5 9.9 69 3.0 SW 32 39 17 21 1015.1 1014.9 0.2
22/08:00pm 15.2 9.4 9.6 69 2.9 WSW 30 39 16 21 1015.1 1014.9 0.2
22/07:30pm 16.0 10.0 8.5 61 3.8 WSW 30 39 16 21 1014.8 1014.6 0.2
22/07:00pm 16.0 10.4 8.7 62 3.7 WSW 28 39 15 21 1014.6 1014.4 0.2
22/06:30pm 16.1 10.5 8.8 62 3.8 WSW 28 39 15 21 1014.5 1014.3 0.2
22/06:00pm 16.5 10.3 9.2 62 3.8 WSW 32 43 17 23 1014.3 1014.1 0.2
22/05:30pm 16.8 11.4 9.5 62 3.8 SW 28 41 15 22 1014.3 1014.1 0.2
22/05:00pm 17.6 12.4 10.2 62 3.9 SW 28 37 15 20 1014.1 1013.9 0.2
22/04:30pm 17.7 12.6 9.3 58 4.4 SW 26 35 14 19 1014.1 1013.9 0.2
22/04:00pm 18.8 13.3 9.3 54 5.0 SW 28 35 15 19 1014.0 1013.8 0.2
22/03:30pm 19.7 14.6 9.3 51 5.5 SW 26 37 14 20 1014.0 1013.8 0.2
22/03:00pm 20.4 15.6 10.2 52 5.5 WSW 26 37 14 20 1014.1 1013.9 0.2
22/02:30pm 19.7 14.8 10.1 54 5.2 SW 26 33 14 18 1014.2 1014.0 0.2
22/02:00pm 19.9 15.5 10.3 54 5.2 SW 24 33 13 18 1014.2 1014.0 0.2
22/01:30pm 19.4 14.9 9.9 54 5.1 SW 24 33 13 18 1014.2 1014.0 0.2
22/01:00pm 19.2 14.7 9.9 55 5.0 SW 24 32 13 17 1014.1 1013.9 0.2
22/12:30pm 19.3 14.7 9.8 54 5.1 SW 24 30 13 16 1014.2 1014.0 0.2
22/12:00pm 19.6 15.6 10.6 56 4.9 SW 22 30 12 16 1014.1 1013.9 0.2
22/11:30am 19.9 15.6 10.9 56 4.9 SW 24 33 13 18 1014.1 1013.9 0.2
22/11:00am 20.3 16.6 12.8 62 4.3 SSW 24 35 13 19 1014.0 1013.8 0.2
22/10:30am 19.3 15.5 12.3 64 3.9 SSW 24 33 13 18 1013.9 1013.7 0.2
22/10:00am 17.8 14.7 13.3 75 2.5 SSW 22 30 12 16 1014.0 1013.8 0.2
22/09:30am 16.5 13.0 10.8 69 3.1 WSW 20 39 11 21 1014.0 1013.8 0.0
22/09:00am 17.6 16.5 13.1 75 2.5 WSW 11 17 6 9 1014.0 1013.8 1.6
22/08:30am 15.7 11.2 11.5 76 2.3 SW 26 35 14 19 1014.1 1013.9 1.6
22/08:00am 16.8 13.2 11.9 73 2.7 SW 22 35 12 19 1013.8 1013.6 1.6
22/07:30am 16.5 12.9 10.6 68 3.2 SW 20 32 11 17 1013.5 1013.3 1.6
22/07:00am 16.2 12.5 10.3 68 3.1 SW 20 30 11 16 1013.3 1013.1 1.6
22/06:30am 15.0 11.6 11.4 79 1.9 SW 20 28 11 15 1012.9 1012.7 1.6
22/06:00am 14.7 10.9 11.3 80 1.8 SW 22 32 12 17 1012.7 1012.5 1.6
22/05:30am 14.1 9.9 11.1 82 1.6 SW 24 37 13 20 1012.4 1012.2 1.6
22/05:00am 13.8 9.0 11.5 86 1.2 SW 28 37 15 20 1012.1 1011.9 1.6
22/04:30am 13.6 8.7 11.3 86 1.2 WSW 28 44 15 24 1011.9 1011.7 1.6
22/04:00am 13.4 8.5 11.3 87 1.1 WSW 28 37 15 20 1011.8 1011.6 1.6
22/03:31am 13.8 9.0 11.5 86 1.2 SW 28 46 15 25 1011.8 1011.6 1.4
22/03:30am 13.9 9.5 11.8 87 1.1 SW 26 46 14 25 1011.8 1011.6 1.4
22/03:00am 13.8 8.5 11.3 85 1.3 SW 30 41 16 22 1011.7 1011.5 1.4
22/02:30am 13.7 8.3 11.0 84 1.4 SW 30 41 16 22 1011.6 1011.4 1.4
22/02:00am 13.7 7.7 10.9 83 1.5 WSW 33 44 18 24 1011.8 1011.6 1.4
22/01:30am 14.4 9.8 11.2 81 1.7 W 26 39 14 21 1011.9 1011.7 0.0
22/01:00am 15.2 10.4 11.6 79 1.9 WSW 28 37 15 20 1012.0 1011.8 0.0
22/12:30am 14.5 9.5 10.9 79 1.9 SW 28 39 15 21 1012.1 1011.9 0.0
22/12:00am 14.7 11.6 10.3 75 2.3 SW 17 24 9 13 1012.2 1012.0 0.0
 
Date/Time
WST
Temp
°C
App
Temp
°C
Dew
Point
Rel
Hum
%
Delta-T
°C
Wind Press
QNH
hPa
Press
MSL
hPa
Rain
since 9 am
mm
Dir
 
Spd
km/h
Gust
km/h
Spd
kts
Gust
kts
21/11:30pm 15.9 10.7 10.2 69 3.0 WSW 28 39 15 21 1012.3 1012.1 0.0
21/11:00pm 16.0 10.9 9.2 64 3.5 WSW 26 33 14 18 1012.3 1012.1 0.0
21/10:30pm 16.0 9.8 9.4 65 3.4 WSW 32 39 17 21 1012.3 1012.1 0.0
21/10:00pm 15.4 9.7 11.2 76 2.3 WSW 32 41 17 22 1012.6 1012.4 0.0
21/09:30pm 14.8 10.4 11.6 81 1.7 SW 26 37 14 20 1012.6 1012.4 0.0
21/09:00pm 16.0 11.5 11.4 74 2.5 WSW 26 32 14 17 1012.5 1012.3 0.0
21/08:30pm 15.5 10.9 10.9 74 2.5 SW 26 35 14 19 1012.3 1012.1 0.0
21/08:00pm 15.3 10.2 10.7 74 2.4 SW 28 35 15 19 1012.3 1012.1 0.0
21/07:30pm 15.4 10.1 11.2 76 2.3 SW 30 37 16 20 1012.0 1011.8 0.0
21/07:00pm 16.3 11.7 11.0 71 2.9 SW 26 33 14 18 1011.9 1011.7 0.0
21/06:30pm 15.9 11.1 10.2 69 3.0 W 26 35 14 19 1011.9 1011.7 0.0
21/06:00pm 16.9 11.4 10.5 66 3.4 WSW 30 39 16 21 1011.4 1011.2 0.0
21/05:30pm 17.2 12.1 10.6 65 3.5 WSW 28 39 15 21 1011.4 1011.2 0.0
21/05:00pm 18.6 13.6 10.9 61 4.2 WSW 28 39 15 21 1011.2 1011.0 0.0
21/04:30pm 19.9 14.3 10.3 54 5.2 WSW 30 37 16 20 1011.3 1011.1 0.0
21/04:00pm 20.5 14.9 10.3 52 5.6 WSW 30 41 16 22 1011.4 1011.2 0.0
21/03:30pm 19.4 13.8 10.1 55 5.0 W 30 35 16 19 1011.5 1011.3 0.0
21/03:00pm 18.7 12.6 9.8 56 4.8 W 32 43 17 23 1011.5 1011.3 0.0
21/02:30pm 20.5 15.1 9.4 49 5.9 W 28 37 15 20 1011.5 1011.3 0.0
21/02:00pm 20.8 15.7 10.6 52 5.6 W 28 37 15 20 1011.5 1011.3 0.0
21/01:30pm 19.5 14.2 9.7 53 5.2 W 28 37 15 20 1011.6 1011.4 0.0
21/01:00pm 20.9 15.6 9.8 49 6.0 W 28 39 15 21 1011.7 1011.5 0.0
21/12:30pm 21.4 15.9 10.6 50 5.9 W 30 37 16 20 1011.5 1011.3 0.0
21/12:00pm 20.6 15.4 10.1 51 5.7 W 28 35 15 19 1011.7 1011.5 0.0

Other Formats:

Comma delimited format used in spreadsheet applications
http://www.bom.gov.au/fwo/IDW60801/IDW60801.94600.axf

JavaScript Object Notation format (JSON) in row-major order
http://www.bom.gov.au/fwo/IDW60801/IDW60801.94600.json